TimeEST,TemperatureF,Dew PointF,Humidity,Sea Level PressureIn,VisibilityMPH,Wind Direction,Wind SpeedMPH,Gust SpeedMPH,PrecipitationIn,Events,Conditions,WindDirDegrees,DateUTC
12:15 AM,26.6,10.4,51,30.04,10.0,North,17.3,-,N/A,,Overcast,10,2013-01-18 05:15:00
12:35 AM,26.6,8.6,47,30.03,10.0,NNE,13.8,-,N/A,,Overcast,20,2013-01-18 05:35:00
1:35 AM,24.8,8.6,50,30.06,10.0,NNE,13.8,19.6,N/A,,Overcast,20,2013-01-18 06:35:00
2:15 AM,24.8,8.6,50,30.07,10.0,North,9.2,-,N/A,,Overcast,10,2013-01-18 07:15:00
2:35 AM,24.8,8.6,50,30.07,10.0,North,9.2,-,N/A,,Overcast,10,2013-01-18 07:35:00
2:55 AM,24.8,8.6,50,30.07,10.0,North,10.4,-,N/A,,Overcast,10,2013-01-18 07:55:00
3:15 AM,24.8,8.6,50,30.07,10.0,North,15.0,19.6,N/A,,Overcast,350,2013-01-18 08:15:00
3:35 AM,24.8,8.6,50,30.07,10.0,North,16.1,-,N/A,,Overcast,10,2013-01-18 08:35:00
3:55 AM,23.0,8.6,54,30.07,10.0,North,12.7,-,N/A,,Overcast,350,2013-01-18 08:55:00
4:15 AM,23.0,6.8,50,30.08,10.0,North,12.7,-,N/A,,Overcast,10,2013-01-18 09:15:00
4:35 AM,21.2,6.8,54,30.09,10.0,North,16.1,-,N/A,,Overcast,360,2013-01-18 09:35:00
4:55 AM,21.2,6.8,54,30.11,10.0,North,13.8,-,N/A,,Partly Cloudy,360,2013-01-18 09:55:00
5:15 AM,21.2,6.8,54,30.12,10.0,North,15.0,19.6,N/A,,Clear,360,2013-01-18 10:15:00
5:35 AM,19.4,5.0,54,30.15,10.0,North,12.7,19.6,N/A,,Clear,360,2013-01-18 10:35:00
5:45 AM,19.4,5.0,54,30.16,10.0,North,13.8,18.4,N/A,,Clear,360,2013-01-18 10:45:00
5:55 AM,19.4,5.0,54,30.16,10.0,North,15.0,-,N/A,,Clear,350,2013-01-18 10:55:00
6:45 AM,17.6,3.2,53,30.21,10.0,North,16.1,-,N/A,,Clear,10,2013-01-18 11:45:00
7:45 AM,17.6,1.4,49,30.27,10.0,North,13.8,19.6,N/A,,Clear,10,2013-01-18 12:45:00
8:45 AM,17.6,-0.4,45,30.32,10.0,North,12.7,18.4,N/A,,Clear,350,2013-01-18 13:45:00
9:45 AM,19.4,-0.4,42,30.36,10.0,North,9.2,-,N/A,,Clear,350,2013-01-18 14:45:00
10:45 AM,19.4,-0.4,42,30.37,10.0,NNW,13.8,23.0,N/A,,Clear,330,2013-01-18 15:45:00
11:45 AM,19.4,-2.2,39,30.37,10.0,NNW,15.0,26.5,N/A,,Clear,330,2013-01-18 16:45:00
12:45 PM,21.2,-0.4,39,30.37,10.0,NNW,11.5,19.6,N/A,,Clear,340,2013-01-18 17:45:00
1:45 PM,21.2,-0.4,39,30.38,10.0,NNW,5.8,17.3,N/A,,Clear,340,2013-01-18 18:45:00
2:45 PM,24.8,-0.4,34,30.39,10.0,NW,8.1,19.6,N/A,,Clear,320,2013-01-18 19:45:00
3:45 PM,24.8,1.4,36,30.39,10.0,NW,9.2,-,N/A,,Clear,310,2013-01-18 20:45:00
4:45 PM,23.0,1.4,39,30.41,10.0,WNW,6.9,-,N/A,,Clear,300,2013-01-18 21:45:00
5:45 PM,21.2,1.4,42,30.42,10.0,West,5.8,-,N/A,,Clear,280,2013-01-18 22:45:00
6:45 PM,19.4,1.4,46,30.44,10.0,Calm,Calm,-,N/A,,Clear,0,2013-01-18 23:45:00
7:45 PM,19.4,1.4,46,30.43,10.0,Calm,Calm,-,N/A,,Clear,0,2013-01-19 00:45:00
9:15 PM,17.6,1.4,49,30.42,10.0,SSW,3.5,-,N/A,,Clear,200,2013-01-19 02:15:00
9:35 PM,19.4,1.4,46,30.41,10.0,South,6.9,-,N/A,,Clear,190,2013-01-19 02:35:00
9:55 PM,19.4,1.4,46,30.40,10.0,SW,5.8,-,N/A,,Clear,220,2013-01-19 02:55:00
10:35 PM,19.4,3.2,49,30.40,10.0,SSW,4.6,-,N/A,,Clear,210,2013-01-19 03:35:00
10:55 PM,21.2,3.2,46,30.39,10.0,SSW,4.6,-,N/A,,Clear,210,2013-01-19 03:55:00
11:15 PM,21.2,3.2,46,30.39,10.0,SSW,4.6,-,N/A,,Clear,210,2013-01-19 04:15:00
11:35 PM,21.2,3.2,46,30.37,10.0,SSW,5.8,-,N/A,,Clear,200,2013-01-19 04:35:00
11:55 PM,21.2,5.0,50,30.36,10.0,SSW,8.1,-,N/A,,Mostly Cloudy,210,2013-01-19 04:55:00